^^
Grace C. Lehan Memorial Weather Station Historical Data
Daily Summary for June 25, 2021 Units:  English    Metric   Both
Daily Weekly Monthly Yearly
  High: Low: Average:
Temperature: 38.3 °F 18.4 °F 28.2 °F
Dew Point: 16.9 °F 6.2 °F 11.6 °F
Humidity: 62.2% 34% 50%
Wind Speed: 5.9mph 0mph 1.1mph
Wind Gust: 15mph - -
Wind- - WNW
Pressure: 30.12 in 30.02 in -
Precipitation: 0.00 in    
 
 
Tabular Data for June 25, 2021
Time Temperature Dew Point Pressure Wind Wind Speed Wind Gust Humidity Rainfall Rate (Hourly) solar
00:04 21.8 °F 7.5 °F 30.06 in NNW 2.2 mph 8 mph 53.5% 0.00 in 0 W/m2
00:09 21.8 °F 7.4 °F 30.06 in NNW 1.8 mph 7 mph 53.3% 0.00 in 0 W/m2
00:14 21.7 °F 7.4 °F 30.06 in NNW 1.7 mph 7 mph 53.4% 0.00 in 0 W/m2
00:19 21.7 °F 7.6 °F 30.06 in NNW 0.9 mph 7 mph 54% 0.00 in 0 W/m2
00:24 21.7 °F 7.6 °F 30.06 in NNW 3 mph 7 mph 54% 0.00 in 0 W/m2
00:29 21.6 °F 7.6 °F 30.06 in NNW 2.1 mph 7 mph 54% 0.00 in 0 W/m2
00:34 21.6 °F 7.4 °F 30.06 in NNW 1.3 mph 7 mph 53.6% 0.00 in 0 W/m2
00:39 21.6 °F 7.5 °F 30.06 in Calm   4 mph 54% 0.00 in 0 W/m2
00:44 21.6 °F 7.5 °F 30.06 in NNW 0.1 mph 4 mph 54% 0.00 in 0 W/m2
00:49 21.5 °F 7.4 °F 30.06 in Calm   4 mph 54% 0.00 in 0 W/m2
00:54 21.5 °F 7.4 °F 30.06 in NNW 0.6 mph 6 mph 54% 0.00 in 0 W/m2
00:59 21.4 °F 7.4 °F 30.05 in Calm   6 mph 54% 0.00 in 0 W/m2
01:04 21.3 °F 7.3 °F 30.05 in NNW 0.5 mph 6 mph 54% 0.00 in 0 W/m2
01:09 21.3 °F 7.4 °F 30.05 in WNW 2.6 mph 8 mph 54.4% 0.00 in 0 W/m2
01:14 21.3 °F 7.3 °F 30.05 in WNW 1.9 mph 8 mph 54% 0.00 in 0 W/m2
01:19 21.3 °F 7.2 °F 30.05 in WNW 1.9 mph 8 mph 54% 0.00 in 0 W/m2
01:24 21.2 °F 7.2 °F 30.06 in NW 2.1 mph 8 mph 54% 0.00 in 0 W/m2
01:29 21.2 °F 7.2 °F 30.06 in NW 1.3 mph 8 mph 54% 0.00 in 0 W/m2
01:34 21.2 °F 7.1 °F 30.06 in NW 3 mph 8 mph 54% 0.00 in 0 W/m2
01:39 21.1 °F 7.1 °F 30.07 in WNW 1.4 mph 7 mph 54% 0.00 in 0 W/m2
01:44 21.1 °F 6.8 °F 30.07 in WNW 3.1 mph 7 mph 53.3% 0.00 in 0 W/m2
01:49 21.1 °F 6.9 °F 30.07 in WNW 1.9 mph 7 mph 53.7% 0.00 in 0 W/m2
01:54 21.1 °F 7.1 °F 30.07 in Calm   7 mph 54% 0.00 in 0 W/m2
01:59 21 °F 7 °F 30.07 in Calm   7 mph 54% 0.00 in 0 W/m2
02:04 20.9 °F 6.9 °F 30.07 in WNW 2.6 mph 7 mph 54% 0.00 in 0 W/m2
02:09 20.8 °F 6.8 °F 30.07 in NW 0.6 mph 6 mph 54% 0.00 in 0 W/m2
02:14 20.8 °F 6.8 °F 30.07 in NW 1 mph 6 mph 54% 0.00 in 0 W/m2
02:19 20.7 °F 6.7 °F 30.07 in NW 0.3 mph 6 mph 54% 0.00 in 0 W/m2
02:24 20.7 °F 6.7 °F 30.07 in Calm   6 mph 54% 0.00 in 0 W/m2
02:29 20.7 °F 6.7 °F 30.07 in NW 1.1 mph 6 mph 54% 0.00 in 0 W/m2
02:34 20.6 °F 6.6 °F 30.07 in NW 1.5 mph 6 mph 54% 0.00 in 0 W/m2
02:39 20.6 °F 6.6 °F 30.07 in NW 0.2 mph 4 mph 54% 0.00 in 0 W/m2
02:44 20.6 °F 6.6 °F 30.07 in NW 1.2 mph 5 mph 54% 0.00 in 0 W/m2
02:49 20.6 °F 6.6 °F 30.07 in NW 2.2 mph 7 mph 54% 0.00 in 0 W/m2
02:54 20.6 °F 6.6 °F 30.06 in WNW 2.4 mph 7 mph 54% 0.00 in 0 W/m2
02:59 20.6 °F 6.5 °F 30.06 in WNW 0.9 mph 7 mph 53.8% 0.00 in 0 W/m2
03:04 20.6 °F 6.6 °F 30.06 in Calm   7 mph 54% 0.00 in 0 W/m2
03:09 20.6 °F 6.6 °F 30.06 in Calm     54% 0.00 in 0 W/m2
03:14 20.6 °F 6.4 °F 30.06 in WNW 0.1 mph 1 mph 53.5% 0.00 in 0 W/m2
03:19 20.5 °F 6.5 °F 30.06 in WNW 0.3 mph 3 mph 54% 0.00 in 0 W/m2
03:24 20.4 °F 6.4 °F 30.06 in NW 1.3 mph 5 mph 54% 0.00 in 0 W/m2
03:29 20.4 °F 6.4 °F 30.06 in NW 1 mph 5 mph 54% 0.00 in 0 W/m2
03:34 20.4 °F 6.4 °F 30.06 in Calm   5 mph 54% 0.00 in 0 W/m2
03:39 20.4 °F 6.4 °F 30.06 in Calm     54% 0.00 in 0 W/m2
03:44 20.3 °F 6.3 °F 30.07 in NW 0.3 mph 3 mph 54% 0.00 in 0 W/m2
03:49 20.2 °F 6.2 °F 30.06 in Calm   3 mph 54% 0.00 in 0 W/m2
03:54 20.1 °F 6.2 °F 30.06 in NW 1.3 mph 5 mph 54% 0.00 in 0 W/m2
03:59 20.1 °F 6.3 °F 30.07 in Calm   5 mph 54.3% 0.00 in 0 W/m2
04:04 20 °F 6.4 °F 30.06 in NW 0.8 mph 2 mph 55% 0.00 in 0 W/m2
04:09 20 °F 6.4 °F 30.06 in NW 0.3 mph 4 mph 55% 0.00 in 0 W/m2
04:14 20 °F 6.3 °F 30.07 in NW 1.8 mph 6 mph 54.7% 0.00 in 0 W/m2
04:19 20 °F 6.3 °F 30.07 in NW 0.8 mph 6 mph 54.5% 0.00 in 0 W/m2
04:24 20 °F 6.3 °F 30.07 in WNW 3 mph 11 mph 54.6% 0.00 in 0 W/m2
04:29 20.1 °F 6.2 °F 30.07 in NW 4.4 mph 12 mph 54.2% 0.00 in 0 W/m2
04:34 20.2 °F 6.3 °F 30.07 in NW 4.9 mph 12 mph 54% 0.00 in 0 W/m2
04:39 20.3 °F 6.3 °F 30.07 in NW 4 mph 10 mph 54% 0.00 in 0 W/m2
04:44 20.4 °F 6.4 °F 30.07 in NW 4.4 mph 10 mph 54% 0.00 in 0 W/m2
04:49 20.4 °F 6.4 °F 30.07 in NW 5.5 mph 15 mph 54% 0.00 in 0 W/m2
04:54 20.5 °F 6.5 °F 30.07 in NW 4.5 mph 15 mph 54% 0.00 in 0 W/m2
04:59 20.5 °F 6.5 °F 30.07 in NW 4.5 mph 15 mph 54% 0.00 in 0 W/m2
05:04 20.5 °F 6.5 °F 30.07 in NW 5.9 mph 15 mph 54% 0.00 in 0 W/m2
05:09 20.5 °F 6.5 °F 30.07 in NW 4.6 mph 12 mph 54% 0.00 in 0 W/m2
05:14 20.5 °F 6.2 °F 30.08 in NW 3.8 mph 12 mph 53.2% 0.00 in 0 W/m2
05:19 20.5 °F 6.5 °F 30.08 in NW 4.1 mph 12 mph 54% 0.00 in 0 W/m2
05:24 20.5 °F 6.5 °F 30.08 in NW 3.2 mph 12 mph 54% 0.00 in 0 W/m2
05:29 20.4 °F 6.4 °F 30.08 in NW 3.2 mph 12 mph 54% 0.00 in 0 W/m2
05:34 20.4 °F 6.4 °F 30.08 in NW 3.9 mph 12 mph 54% 0.00 in 0 W/m2
05:39 20.3 °F 6.3 °F 30.08 in NW 4.1 mph 11 mph 54% 0.00 in 0 W/m2
05:44 20.3 °F 6.3 °F 30.08 in NNW 3.1 mph 11 mph 54% 0.00 in 0 W/m2
05:49 20.3 °F 6.7 °F 30.08 in NW 2.5 mph 11 mph 55% 0.00 in 0 W/m2
05:54 20.2 °F 6.6 °F 30.08 in NNW 1.3 mph 11 mph 55% 0.00 in 0 W/m2
05:59 20.2 °F 6.8 °F 30.09 in Calm   11 mph 55.4% 0.00 in 0 W/m2
06:04 20.1 °F 6.7 °F 30.09 in Calm   11 mph 55.4% 0.00 in 0 W/m2
06:09 20 °F 6.4 °F 30.09 in Calm     55% 0.00 in 0 W/m2
06:14 19.9 °F 6.7 °F 30.09 in Calm     56% 0.00 in 0 W/m2
06:19 19.7 °F 6.6 °F 30.09 in Calm     56% 0.00 in 0 W/m2
06:24 19.6 °F 6.8 °F 30.09 in Calm     56.9% 0.00 in 0 W/m2
06:29 19.4 °F 6.7 °F 30.09 in Calm     57% 0.00 in 0 W/m2
06:34 19.3 °F 6.6 °F 30.09 in Calm     57% 0.00 in 0 W/m2
06:39 19.2 °F 6.5 °F 30.09 in Calm     57% 0.00 in 0 W/m2
06:44 19.1 °F 6.7 °F 30.10 in Calm     57.9% 0.00 in 0 W/m2
06:49 19 °F 6.6 °F 30.10 in Calm     58% 0.00 in 0 W/m2
06:54 18.9 °F 6.5 °F 30.10 in Calm     58% 0.00 in 0 W/m2
06:59 18.8 °F 6.5 °F 30.09 in Calm     58.2% 0.00 in 0 W/m2
07:04 18.7 °F 6.8 °F 30.10 in Calm     59% 0.00 in 0 W/m2
07:09 18.6 °F 6.8 °F 30.10 in Calm     59.3% 0.00 in 0 W/m2
07:14 18.5 °F 7.3 °F 30.10 in Calm     60.9% 0.00 in 5 W/m2
07:19 18.4 °F 7.3 °F 30.11 in Calm     61.3% 0.00 in 7 W/m2
07:24 18.4 °F 7.3 °F 30.12 in Calm     61.3% 0.00 in 12 W/m2
07:29 18.4 °F 7.2 °F 30.11 in Calm     61% 0.00 in 16 W/m2
07:34 18.5 °F 7.6 °F 30.11 in Calm     61.7% 0.00 in 25 W/m2
07:39 18.7 °F 7.8 °F 30.11 in Calm     62% 0.00 in 35 W/m2
07:44 18.9 °F 8.1 °F 30.11 in Calm     62.2% 0.00 in 33 W/m2
07:49 19.2 °F 8.3 °F 30.12 in Calm     62% 0.00 in 40 W/m2
07:54 19.5 °F 8.7 °F 30.11 in Calm     62% 0.00 in 30 W/m2
07:59 20 °F 9 °F 30.11 in Calm     61.8% 0.00 in 58 W/m2
08:00 20.3 °F 9 °F 30.10 in Calm     61% 0.00 in 58 W/m2
08:09 21 °F 9.4 °F 30.11 in Calm     60.2% 0.00 in 60 W/m2
08:14 21.5 °F 9.4 °F 30.11 in Calm     59% 0.00 in 81 W/m2
08:19 22 °F 9.7 °F 30.10 in Calm     58.6% 0.00 in 44 W/m2
08:24 22.5 °F 10.2 °F 30.10 in Calm     58.6% 0.00 in 107 W/m2
08:29 23 °F 10.1 °F 30.10 in Calm     57.1% 0.00 in 151 W/m2
08:34 23.5 °F 10.5 °F 30.10 in Calm     56.8% 0.00 in 151 W/m2
08:39 24.2 °F 10.6 °F 30.10 in Calm     55.5% 0.00 in 155 W/m2
08:44 24.6 °F 10.5 °F 30.09 in Calm     54.4% 0.00 in 81 W/m2
08:49 24.7 °F 10.2 °F 30.10 in Calm     53.3% 0.00 in 128 W/m2
08:54 24.8 °F 10.2 °F 30.09 in Calm     53.2% 0.00 in 181 W/m2
08:59 25.1 °F 10.6 °F 30.10 in Calm     53.4% 0.00 in 186 W/m2
09:04 25.6 °F 11.2 °F 30.10 in Calm     53.8% 0.00 in 137 W/m2
09:09 26.2 °F 11.4 °F 30.11 in NNW 0.8 mph 4 mph 52.8% 0.00 in 200 W/m2
09:14 26.4 °F 11.2 °F 30.10 in NNW 0.8 mph 6 mph 52% 0.00 in 225 W/m2
09:19 26.5 °F 11.3 °F 30.11 in NNW 0.4 mph 6 mph 52% 0.00 in 295 W/m2
09:24 26.8 °F 11.6 °F 30.11 in NNW 0.9 mph 6 mph 52.3% 0.00 in 262 W/m2
09:29 27 °F 11.3 °F 30.10 in NNW 1 mph 6 mph 51% 0.00 in 301 W/m2
09:34 27.2 °F 11.2 °F 30.10 in Calm   6 mph 50.4% 0.00 in 301 W/m2
09:39 27.6 °F 11.5 °F 30.10 in NNW 0.3 mph 3 mph 50.3% 0.00 in 186 W/m2
09:44 27.8 °F 11.6 °F 30.11 in NNW 0.2 mph 3 mph 50% 0.00 in 183 W/m2
09:49 27.9 °F 11.6 °F 30.12 in Calm   3 mph 49.7% 0.00 in 271 W/m2
09:54 28 °F 11.6 °F 30.11 in Calm   3 mph 49.7% 0.00 in 156 W/m2
09:59 28.1 °F 11.5 °F 30.11 in NNW 0.1 mph 3 mph 49.4% 0.00 in 142 W/m2
10:04 28.2 °F 11.7 °F 30.11 in Calm   3 mph 49.4% 0.00 in 127 W/m2
10:09 28.3 °F 11.5 °F 30.10 in NNW 0.4 mph 1 mph 48.8% 0.00 in 127 W/m2
10:14 28.5 °F 11.8 °F 30.10 in NNW 0.1 mph 1 mph 49.2% 0.00 in 171 W/m2
10:19 28.9 °F 11.9 °F 30.10 in NNW 0.3 mph 3 mph 48.5% 0.00 in 213 W/m2
10:24 29.4 °F 12.2 °F 30.10 in North 0.8 mph 5 mph 48% 0.00 in 269 W/m2
10:29 30 °F 12 °F 30.10 in Calm   5 mph 46.5% 0.00 in 403 W/m2
10:34 30.5 °F 12.2 °F 30.09 in North 0.2 mph 5 mph 46% 0.00 in 390 W/m2
10:39 31.2 °F 12.8 °F 30.09 in North 0.7 mph 5 mph 46% 0.00 in 315 W/m2
10:44 32.2 °F 13.4 °F 30.08 in NNW 1.4 mph 8 mph 45.3% 0.00 in 366 W/m2
10:49 33.1 °F 13.7 °F 30.09 in NNW 0.6 mph 8 mph 44.4% 0.00 in 471 W/m2
10:54 34.2 °F 14 °F 30.09 in North 0.3 mph 8 mph 42.9% 0.00 in 520 W/m2
10:59 35 °F 13.8 °F 30.09 in North 0.7 mph 8 mph 41.3% 0.00 in 529 W/m2
11:04 35.3 °F 13.2 °F 30.08 in NNE 2 mph 8 mph 39.7% 0.00 in 533 W/m2
11:09 35.4 °F 13.3 °F 30.08 in NE 1.1 mph 6 mph 39.6% 0.00 in 455 W/m2
11:14 35.7 °F 13 °F 30.07 in NE 1.9 mph 6 mph 38.8% 0.00 in 127 W/m2
11:19 35.5 °F 12.1 °F 30.07 in ENE 1.3 mph 6 mph 37.5% 0.00 in 171 W/m2
11:24 34.8 °F 12.1 °F 30.07 in ENE 0.8 mph 7 mph 38.5% 0.00 in 304 W/m2
11:29 34.3 °F 12 °F 30.06 in ENE 0.9 mph 7 mph 39% 0.00 in 355 W/m2
11:34 33.9 °F 11.8 °F 30.06 in Calm   7 mph 39.4% 0.00 in 360 W/m2
11:39 33.8 °F 11.8 °F 30.06 in ENE 0.2 mph 4 mph 39.6% 0.00 in 475 W/m2
11:44 33.8 °F 12.1 °F 30.06 in NNE 1.4 mph 6 mph 40% 0.00 in 475 W/m2
11:49 33.9 °F 11.9 °F 30.06 in East 0.6 mph 6 mph 39.6% 0.00 in 237 W/m2
11:54 33.7 °F 11.9 °F 30.05 in NE 1.1 mph 6 mph 39.9% 0.00 in 250 W/m2
11:59 33.8 °F 12.1 °F 30.05 in NE 0.4 mph 6 mph 40.1% 0.00 in 158 W/m2
12:09 33.8 °F 12.5 °F 30.05 in NE 0.4 mph 2 mph 40.7% 0.00 in 515 W/m2
12:14 34.4 °F 13 °F 30.05 in NE 0.6 mph 4 mph 40.7% 0.00 in 515 W/m2
12:19 35 °F 12.5 °F 30.05 in NE 0.4 mph 4 mph 38.8% 0.00 in 311 W/m2
12:24 35 °F 12.3 °F 30.04 in NE 0.4 mph 4 mph 38.5% 0.00 in 338 W/m2
12:29 35.2 °F 12.7 °F 30.04 in NE 0.8 mph 4 mph 39% 0.00 in 213 W/m2
12:34 35.5 °F 13 °F 30.04 in North 0.7 mph 4 mph 39% 0.00 in 141 W/m2
12:39 35.8 °F 12.5 °F 30.04 in ENE 1.9 mph 7 mph 37.7% 0.00 in 120 W/m2
12:44 35.9 °F 12.6 °F 30.04 in NE 0.5 mph 7 mph 37.7% 0.00 in 311 W/m2
12:49 36.1 °F 13 °F 30.04 in North 1.9 mph 7 mph 38% 0.00 in 311 W/m2
12:54 36.6 °F 12.9 °F 30.04 in NNW 1 mph 7 mph 37.2% 0.00 in 213 W/m2
12:59 36.8 °F 12.7 °F 30.04 in NNW 0.7 mph 7 mph 36.4% 0.00 in 248 W/m2
13:04 37 °F 12.8 °F 30.04 in Calm   7 mph 36.3% 0.00 in 241 W/m2
13:09 37.3 °F 12.8 °F 30.04 in NNW 0.8 mph 9 mph 36% 0.00 in 367 W/m2
13:14 37.7 °F 12.8 °F 30.04 in WNW 3.4 mph 9 mph 35.5% 0.00 in 160 W/m2
13:19 37.9 °F 13.2 °F 30.03 in NE 0.9 mph 9 mph 35.8% 0.00 in 309 W/m2
13:24 38 °F 12.8 °F 30.03 in NNE 0.5 mph 9 mph 35% 0.00 in 341 W/m2
13:29 38.1 °F 12.8 °F 30.03 in NE 1.5 mph 9 mph 34.9% 0.00 in 274 W/m2
13:34 37.9 °F 12.4 °F 30.03 in NE 0.8 mph 9 mph 34.5% 0.00 in 202 W/m2
13:39 37.9 °F 12.7 °F 30.03 in Calm   5 mph 35% 0.00 in 137 W/m2
13:44 37.9 °F 12.7 °F 30.03 in NE 0.7 mph 5 mph 35% 0.00 in 227 W/m2
13:49 38 °F 12.8 °F 30.03 in NNW 0.8 mph 5 mph 35% 0.00 in 200 W/m2
13:54 38.1 °F 12.9 °F 30.03 in NW 0.2 mph 5 mph 35% 0.00 in 174 W/m2
13:59 38.2 °F 12.5 °F 30.03 in NW 0.2 mph 5 mph 34.3% 0.00 in 151 W/m2
14:04 38.3 °F 12.8 °F 30.02 in NW 1.9 mph 8 mph 34.6% 0.00 in 171 W/m2
14:09 38.2 °F 12.3 °F 30.02 in NW 1.5 mph 9 mph 34% 0.00 in 127 W/m2
14:14 38 °F 12.2 °F 30.02 in WNW 4.6 mph 12 mph 34% 0.00 in 132 W/m2
14:19 37.9 °F 12.4 °F 30.02 in WNW 2.5 mph 12 mph 34.5% 0.00 in 135 W/m2
14:24 37.8 °F 12.6 °F 30.02 in NW 3.5 mph 12 mph 35% 0.00 in 90 W/m2
14:29 37.6 °F 12.4 °F 30.02 in WNW 3.9 mph 12 mph 35% 0.00 in 128 W/m2
14:34 37.3 °F 12.7 °F 30.02 in WNW 4 mph 12 mph 35.8% 0.00 in 135 W/m2
14:39 37.2 °F 12.7 °F 30.03 in WNW 3.9 mph 10 mph 36% 0.00 in 118 W/m2
14:44 37.3 °F 12.8 °F 30.04 in WNW 4.8 mph 11 mph 36% 0.00 in 146 W/m2
14:49 37.3 °F 12.9 °F 30.03 in NW 2.7 mph 11 mph 36.2% 0.00 in 218 W/m2
14:54 37.4 °F 13 °F 30.03 in WNW 2.2 mph 11 mph 36.2% 0.00 in 218 W/m2
14:59 37.5 °F 13.1 °F 30.03 in WNW 4.6 mph 12 mph 36.2% 0.00 in 153 W/m2
15:04 37.6 °F 13.2 °F 30.04 in WNW 1.7 mph 12 mph 36.2% 0.00 in 79 W/m2
15:09 37.7 °F 13.2 °F 30.04 in NW 3 mph 11 mph 36.1% 0.00 in 76 W/m2
15:14 37.6 °F 13.1 °F 30.05 in NNW 1.6 mph 11 mph 36% 0.00 in 63 W/m2
15:19 37.4 °F 13.1 °F 30.04 in NW 3.2 mph 11 mph 36.3% 0.00 in 44 W/m2
15:24 37.3 °F 13.4 °F 30.04 in NW 3.1 mph 11 mph 37% 0.00 in 33 W/m2
15:29 37.2 °F 13.3 °F 30.04 in WNW 5.1 mph 11 mph 37% 0.00 in 32 W/m2
15:34 37 °F 13.2 °F 30.04 in WNW 3.8 mph 11 mph 37% 0.00 in 33 W/m2
15:39 36.9 °F 13.2 °F 30.04 in NW 1.6 mph 11 mph 37.3% 0.00 in 32 W/m2
15:44 36.8 °F 13.5 °F 30.04 in WNW 1.4 mph 11 mph 38% 0.00 in 30 W/m2
15:49 36.6 °F 13.4 °F 30.04 in WNW 3 mph 11 mph 38% 0.00 in 26 W/m2
15:54 36.4 °F 13.5 °F 30.04 in WNW 1.9 mph 11 mph 38.4% 0.00 in 19 W/m2
15:59 36.2 °F 13.7 °F 30.05 in WNW 0.2 mph 11 mph 39% 0.00 in 18 W/m2
16:09 35.9 °F 13.9 °F 30.05 in NW 0.7 mph 7 mph 40% 0.00 in 16 W/m2
16:14 35.7 °F 14.2 °F 30.05 in NW 1.6 mph 7 mph 40.8% 0.00 in 12 W/m2
16:19 35.4 °F 14.2 °F 30.04 in NNW 1.1 mph 7 mph 41.2% 0.00 in 11 W/m2
16:24 35.2 °F 14.4 °F 30.04 in NNW 1 mph 7 mph 42% 0.00 in 9 W/m2
16:29 35 °F 14.3 °F 30.04 in NW 1 mph 7 mph 42.2% 0.00 in 9 W/m2
16:34 34.8 °F 14.6 °F 30.04 in NW 1.2 mph 7 mph 43% 0.00 in 7 W/m2
16:39 34.6 °F 14.5 °F 30.03 in NW 1.2 mph 8 mph 43.2% 0.00 in 9 W/m2
16:44 34.4 °F 14.8 °F 30.03 in NNW 0.4 mph 8 mph 44% 0.00 in 9 W/m2
16:49 34.2 °F 14.7 °F 30.04 in NNW 0.4 mph 8 mph 44.3% 0.00 in 5 W/m2
16:54 34.1 °F 15 °F 30.04 in NNW 0.1 mph 8 mph 45% 0.00 in 0 W/m2
16:59 33.8 °F 15.2 °F 30.04 in NW 1.5 mph 8 mph 45.8% 0.00 in 0 W/m2
17:04 33.6 °F 15.1 °F 30.04 in NW 0.5 mph 8 mph 46% 0.00 in 0 W/m2
17:09 33.4 °F 15.1 °F 30.04 in NW 1.8 mph 7 mph 46.4% 0.00 in 0 W/m2
17:14 33.3 °F 15.2 °F 30.04 in NW 2.2 mph 7 mph 47% 0.00 in 0 W/m2
17:19 33.2 °F 15.1 °F 30.04 in NW 1.3 mph 7 mph 47% 0.00 in 0 W/m2
17:24 33 °F 15.2 °F 30.03 in NW 0.8 mph 7 mph 47.4% 0.00 in 0 W/m2
17:29 32.9 °F 15.4 °F 30.04 in NW 1.4 mph 7 mph 47.9% 0.00 in 0 W/m2
17:34 32.8 °F 15.3 °F 30.04 in NW 0.6 mph 7 mph 48% 0.00 in 0 W/m2
17:39 32.7 °F 15.2 °F 30.04 in NW 0.6 mph 6 mph 48% 0.00 in 0 W/m2
17:44 32.6 °F 15.3 °F 30.05 in NW 1 mph 6 mph 48.4% 0.00 in 0 W/m2
17:49 32.5 °F 15.5 °F 30.05 in NW 1.1 mph 6 mph 49% 0.00 in 0 W/m2
17:54 32.4 °F 15.4 °F 30.05 in NW 1.1 mph 6 mph 49% 0.00 in 0 W/m2
17:59 32.3 °F 15.5 °F 30.06 in NW 0.5 mph 6 mph 49.3% 0.00 in 0 W/m2
18:04 32.3 °F 15.8 °F 30.06 in NW 0.3 mph 6 mph 50% 0.00 in 0 W/m2
18:09 32.2 °F 15.7 °F 30.06 in NW 0.7 mph 4 mph 50% 0.00 in 0 W/m2
18:14 32.1 °F 15.6 °F 30.06 in NW 0.3 mph 4 mph 50% 0.00 in 0 W/m2
18:19 32 °F 15.5 °F 30.06 in NW 0.5 mph 4 mph 50% 0.00 in 0 W/m2
18:24 31.9 °F 15.8 °F 30.06 in NW 0.7 mph 5 mph 51% 0.00 in 0 W/m2
18:29 31.8 °F 15.7 °F 30.06 in NW 0.5 mph 5 mph 51% 0.00 in 0 W/m2
18:34 31.7 °F 15.6 °F 30.06 in NW 0.2 mph 5 mph 51% 0.00 in 0 W/m2
18:39 31.6 °F 15.6 °F 30.07 in NW 0.4 mph 3 mph 51% 0.00 in 0 W/m2
18:44 31.5 °F 15.5 °F 30.07 in NW 0.7 mph 5 mph 51% 0.00 in 0 W/m2
18:49 31.5 °F 15.7 °F 30.08 in NW 0.4 mph 5 mph 51.7% 0.00 in 0 W/m2
18:54 31.4 °F 15.8 °F 30.08 in NW 0.6 mph 5 mph 52% 0.00 in 0 W/m2
18:59 31.4 °F 15.8 °F 30.09 in NW 2 mph 6 mph 52% 0.00 in 0 W/m2
19:04 31.4 °F 15.8 °F 30.09 in NW 1.3 mph 7 mph 52% 0.00 in 0 W/m2
19:09 31.4 °F 15.8 °F 30.09 in WNW 2.3 mph 7 mph 52% 0.00 in 0 W/m2
19:14 31.3 °F 16.1 °F 30.08 in WNW 2.5 mph 10 mph 52.8% 0.00 in 0 W/m2
19:19 31.3 °F 16.2 °F 30.08 in WNW 0.6 mph 10 mph 53% 0.00 in 0 W/m2
19:24 31.2 °F 16.1 °F 30.09 in NW 0.7 mph 10 mph 53% 0.00 in 0 W/m2
19:29 31.2 °F 16 °F 30.09 in WNW 0.8 mph 10 mph 53% 0.00 in 0 W/m2
19:34 31.1 °F 16 °F 30.08 in NW 0.3 mph 10 mph 53% 0.00 in 0 W/m2
19:39 31.1 °F 16 °F 30.08 in NW 0.3 mph 5 mph 53% 0.00 in 0 W/m2
19:44 31 °F 15.9 °F 30.08 in NW 0.5 mph 5 mph 53% 0.00 in 0 W/m2
19:49 30.9 °F 16.1 °F 30.08 in NW 0.4 mph 5 mph 53.7% 0.00 in 0 W/m2
19:54 30.9 °F 16.2 °F 30.08 in NW 0.4 mph 5 mph 54% 0.00 in 0 W/m2
19:59 30.8 °F 16.1 °F 30.08 in Calm   5 mph 54% 0.00 in 0 W/m2
20:09 30.8 °F 16.1 °F 30.08 in NW 0.4 mph 4 mph 54% 0.00 in 0 W/m2
20:14 30.7 °F 16 °F 30.08 in NNW 0.3 mph 4 mph 54% 0.00 in 0 W/m2
20:19 30.7 °F 16.4 °F 30.08 in NNW 0.2 mph 4 mph 54.8% 0.00 in 0 W/m2
20:24 30.7 °F 16.5 °F 30.08 in NNW 0.1 mph 4 mph 55% 0.00 in 0 W/m2
20:29 30.6 °F 16.4 °F 30.08 in NNW 0.9 mph 7 mph 55% 0.00 in 0 W/m2
20:34 30.6 °F 16.4 °F 30.08 in NNW 0.6 mph 7 mph 55% 0.00 in 0 W/m2
20:39 30.6 °F 16.4 °F 30.08 in NNW 1.9 mph 8 mph 55% 0.00 in 0 W/m2
20:44 30.6 °F 16.4 °F 30.08 in NNW 1 mph 8 mph 55% 0.00 in 0 W/m2
20:49 30.6 °F 16.4 °F 30.08 in NNW 2.2 mph 8 mph 55% 0.00 in 0 W/m2
20:54 30.6 °F 16.4 °F 30.09 in NNW 1.2 mph 8 mph 55% 0.00 in 0 W/m2
20:59 30.6 °F 16.4 °F 30.09 in NNW 0.4 mph 8 mph 55% 0.00 in 0 W/m2
21:04 30.6 °F 16.4 °F 30.09 in NNW 2.2 mph 10 mph 55% 0.00 in 0 W/m2
21:09 30.6 °F 16.4 °F 30.09 in NNW 0.8 mph 10 mph 55% 0.00 in 0 W/m2
21:14 30.6 °F 16.4 °F 30.09 in NNW 1.1 mph 10 mph 55% 0.00 in 0 W/m2
21:19 30.5 °F 16.3 °F 30.09 in NNW 1.8 mph 10 mph 55% 0.00 in 0 W/m2
21:24 30.5 °F 16.3 °F 30.08 in North 1.7 mph 11 mph 55.1% 0.00 in 0 W/m2
21:29 30.4 °F 16.5 °F 30.08 in North 0.7 mph 11 mph 55.6% 0.00 in 0 W/m2
21:34 30.4 °F 16.6 °F 30.08 in NNW 0.3 mph 11 mph 56% 0.00 in 0 W/m2
21:39 30.3 °F 16.5 °F 30.09 in NNW 0.8 mph 6 mph 56% 0.00 in 0 W/m2
21:44 30.3 °F 16.5 °F 30.09 in NNW 0.8 mph 6 mph 56% 0.00 in 0 W/m2
21:49 30.3 °F 16.5 °F 30.09 in NNW 0.3 mph 6 mph 56% 0.00 in 0 W/m2
21:54 30.3 °F 16.5 °F 30.10 in Calm   6 mph 56% 0.00 in 0 W/m2
21:59 30.3 °F 16.6 °F 30.10 in NNW 0.4 mph 6 mph 56.3% 0.00 in 0 W/m2
22:04 30.2 °F 16.6 °F 30.10 in NNW 1.1 mph 6 mph 56.4% 0.00 in 0 W/m2
22:09 30.2 °F 16.4 °F 30.10 in NNW 1.7 mph 6 mph 56% 0.00 in 0 W/m2
22:14 30.2 °F 16.4 °F 30.10 in NNE 1.1 mph 6 mph 56% 0.00 in 0 W/m2
22:19 30.3 °F 16.5 °F 30.10 in North 0.3 mph 6 mph 56% 0.00 in 0 W/m2
22:24 30.3 °F 16.5 °F 30.10 in North 0.2 mph 6 mph 56.1% 0.00 in 0 W/m2
22:29 30.3 °F 16.5 °F 30.09 in Calm   6 mph 56% 0.00 in 0 W/m2
22:34 30.3 °F 16.9 °F 30.09 in North 0.3 mph 6 mph 56.9% 0.00 in 0 W/m2
22:39 30.3 °F 16.9 °F 30.09 in North 0.4 mph 4 mph 56.9% 0.00 in 0 W/m2
22:44 30.3 °F 16.8 °F 30.09 in North 0.6 mph 6 mph 56.7% 0.00 in 0 W/m2
22:49 30.3 °F 16.8 °F 30.10 in North 0.2 mph 6 mph 56.7% 0.00 in 0 W/m2
22:54 30.3 °F 16.6 °F 30.10 in North 0.3 mph 6 mph 56.3% 0.00 in 0 W/m2
22:59 30.3 °F 16.6 °F 30.10 in North 0.2 mph 6 mph 56.2% 0.00 in 0 W/m2
23:00 30.3 °F 16.5 °F 30.09 in Calm   6 mph 56% 0.00 in 0 W/m2
23:09 30.3 °F 16.5 °F 30.10 in North 0.4 mph 4 mph 56% 0.00 in 0 W/m2
23:14 30.3 °F 16.6 °F 30.09 in North 0.4 mph 5 mph 56.3% 0.00 in 0 W/m2
23:19 30.3 °F 16.8 °F 30.09 in North 0.1 mph 5 mph 56.8% 0.00 in 0 W/m2
23:24 30.3 °F 16.8 °F 30.09 in North 0.2 mph 5 mph 56.7% 0.00 in 0 W/m2
23:29 30.3 °F 16.5 °F 30.09 in NNW 1.1 mph 9 mph 56.1% 0.00 in 0 W/m2
23:34 30.3 °F 16.9 °F 30.09 in NNW 0.3 mph 9 mph 56.9% 0.00 in 0 W/m2
23:39 30.3 °F 16.9 °F 30.09 in NNW 0.2 mph 5 mph 57% 0.00 in 0 W/m2
23:44 30.3 °F 16.8 °F 30.08 in Calm   5 mph 56.7% 0.00 in 0 W/m2
23:49 30.3 °F 16.9 °F 30.08 in North 0.1 mph 5 mph 56.9% 0.00 in 0 W/m2
23:54 30.3 °F 16.9 °F 30.07 in Calm   5 mph 57% 0.00 in 0 W/m2
23:59 30.2 °F 16.8 °F 30.06 in NE 1.5 mph 5 mph 57% 0.00 in 0 W/m2
Hartford County Weather
Compliments of Weather Underground - 2 mb